Time;durP1;ratioP1;P1;durP2;ratioP2;P2;SDS_P1;SDS_P2;PMS_P1;PMS_P2;Temp;Humidity;BMP_temperature;BMP_pressure;BME280_temperature;BME280_humidity;BME280_pressure;Samples;Min_cycle;Max_cycle;Signal;HPM_P1;HPM_P2
2023/06/15 00:00:49;;;;;;;11.23;3.70;;;;;;;20.78;54.28;100940.84;4994111;28;20438;-49
2023/06/15 00:03:18;;;;;;;7.63;3.28;;;;;;;20.57;54.63;100945.44;4993821;28;20101;-46
2023/06/15 00:05:45;;;;;;;7.35;3.92;;;;;;;20.72;55.89;100933.78;4994014;28;20037;-44
2023/06/15 00:08:12;;;;;;;9.32;3.65;;;;;;;20.81;55.48;100922.06;4993797;28;20034;-45
2023/06/15 00:10:38;;;;;;;9.65;4.10;;;;;;;20.17;56.62;100919.78;4993714;28;20541;-48
2023/06/15 00:13:05;;;;;;;14.70;4.30;;;;;;;19.76;58.11;100913.38;4994180;28;20072;-45
2023/06/15 00:15:31;;;;;;;11.45;4.10;;;;;;;19.77;58.56;100910.44;4993559;28;20112;-46
2023/06/15 00:17:57;;;;;;;8.40;4.13;;;;;;;19.80;58.31;100905.53;4993902;28;20463;-46
2023/06/15 00:20:28;;;;;;;7.90;4.20;;;;;;;19.93;58.81;100899.59;4993627;28;20026;-49
2023/06/15 00:22:55;;;;;;;13.98;4.90;;;;;;;20.13;57.27;100896.94;4993691;28;20037;-47
2023/06/15 00:25:22;;;;;;;7.63;4.10;;;;;;;19.80;58.25;100902.81;4993409;28;20447;-47
2023/06/15 00:27:49;;;;;;;10.82;4.13;;;;;;;20.04;57.86;100901.25;4993591;28;20022;-49
2023/06/15 00:30:16;;;;;;;9.30;4.80;;;;;;;20.12;57.38;100894.50;4993556;28;20036;-48
2023/06/15 00:32:42;;;;;;;10.90;4.13;;;;;;;20.04;58.64;100898.53;4993355;28;20047;-48
2023/06/15 00:35:09;;;;;;;10.10;3.88;;;;;;;20.05;57.64;100892.06;4993426;28;20030;-48
2023/06/15 00:37:35;;;;;;;8.55;3.92;;;;;;;20.04;58.53;100890.38;4993600;28;20038;-48
2023/06/15 00:40:05;;;;;;;10.10;3.83;;;;;;;20.07;57.40;100895.31;4993088;28;20487;-46
2023/06/15 00:42:32;;;;;;;7.57;4.20;;;;;;;19.96;58.47;100902.59;4993282;28;20088;-46
2023/06/15 00:45:00;;;;;;;10.80;4.57;;;;;;;19.36;59.38;100900.41;4993744;28;20077;-46
2023/06/15 00:47:27;;;;;;;9.02;4.53;;;;;;;19.44;59.02;100894.50;4993059;28;20109;-46
2023/06/15 00:49:53;;;;;;;8.23;3.80;;;;;;;19.21;60.17;100893.81;4993532;28;20077;-47
2023/06/15 00:52:21;;;;;;;10.45;3.78;;;;;;;19.15;60.64;100892.13;5008472;28;20431;-48
2023/06/15 00:54:48;;;;;;;5.32;3.45;;;;;;;19.44;60.24;100889.06;4993255;28;20031;-46
2023/06/15 00:57:14;;;;;;;7.78;4.10;;;;;;;19.09;60.54;100887.75;4992593;28;20387;-48
2023/06/15 00:59:43;;;;;;;9.15;3.97;;;;;;;19.18;61.03;100877.25;4991128;28;20034;-49
2023/06/15 01:02:12;;;;;;;8.10;3.20;;;;;;;19.25;60.49;100878.63;4992804;28;20027;-49
2023/06/15 01:04:43;;;;;;;7.07;3.42;;;;;;;19.44;60.03;100878.22;4993044;28;20489;-51
2023/06/15 01:07:11;;;;;;;7.45;3.40;;;;;;;19.20;61.19;100875.06;4989959;28;20038;-50
2023/06/15 01:09:41;;;;;;;5.88;3.25;;;;;;;19.04;62.12;100876.88;4992765;28;20084;-48
2023/06/15 01:12:11;;;;;;;9.40;3.40;;;;;;;19.31;60.78;100868.63;4995418;28;20033;-48
2023/06/15 01:14:39;;;;;;;4.72;3.00;;;;;;;19.24;60.92;100868.84;4999078;28;20117;-50
2023/06/15 01:17:23;;;;;;;9.32;3.75;;;;;;;19.17;60.42;100873.72;4995515;28;20050;-48
2023/06/15 01:20:08;;;;;;;5.60;3.03;;;;;;;19.34;60.75;100870.00;4995753;28;20098;-49
2023/06/15 01:22:49;;;;;;;4.85;2.88;;;;;;;19.32;60.15;100854.00;4996787;28;20423;-49
2023/06/15 01:25:46;;;;;;;7.15;3.22;;;;;;;19.48;60.33;100844.81;4996709;28;20026;-48
2023/06/15 01:28:15;;;;;;;7.22;3.40;;;;;;;19.04;61.85;100844.31;4996801;28;20032;-47
2023/06/15 01:30:43;;;;;;;5.47;3.17;;;;;;;19.24;60.98;100835.47;4996696;28;20026;-47
2023/06/15 01:33:11;;;;;;;5.55;3.38;;;;;;;19.16;61.16;100841.41;5011771;28;20026;-46
2023/06/15 01:35:38;;;;;;;5.40;3.20;;;;;;;19.15;60.80;100843.28;4996565;28;20023;-49
2023/06/15 01:38:06;;;;;;;5.60;3.20;;;;;;;19.12;60.42;100849.25;4996408;28;20031;-48
2023/06/15 01:40:37;;;;;;;5.30;3.13;;;;;;;19.10;60.83;100846.00;4996265;28;20055;-47
2023/06/15 01:43:07;;;;;;;8.60;3.58;;;;;;;18.82;61.45;100851.75;4996519;28;20023;-48
2023/06/15 01:45:35;;;;;;;9.02;4.30;;;;;;;18.39;62.85;100846.25;4996430;28;20368;-49
2023/06/15 01:48:04;;;;;;;9.32;3.53;;;;;;;18.32;62.47;100861.06;4996202;28;20475;-48
2023/06/15 01:50:32;;;;;;;4.50;2.80;;;;;;;18.25;62.85;100855.06;4994927;28;20030;-50
2023/06/15 01:52:58;;;;;;;3.63;2.42;;;;;;;18.26;63.46;100854.78;4996336;28;20487;-46
2023/06/15 01:55:26;;;;;;;5.15;2.80;;;;;;;18.07;62.98;100856.25;4996094;28;20069;-49
2023/06/15 01:57:54;;;;;;;3.08;2.33;;;;;;;18.20;62.88;100848.50;4996767;28;20479;-46
2023/06/15 02:00:25;;;;;;;2.72;1.90;;;;;;;18.42;62.50;100862.00;4996269;28;20026;-49
2023/06/15 02:02:52;;;;;;;4.47;1.77;;;;;;;18.42;62.33;100866.59;4996244;28;20018;-48
2023/06/15 02:05:19;;;;;;;4.13;2.42;;;;;;;18.86;61.00;100872.69;5011101;28;20391;-48
2023/06/15 02:07:45;;;;;;;3.78;1.75;;;;;;;19.31;59.55;100860.47;4996306;28;20026;-49
2023/06/15 02:10:12;;;;;;;2.03;1.83;;;;;;;19.25;59.60;100867.78;4994641;28;20023;-47
2023/06/15 02:12:38;;;;;;;2.63;1.80;;;;;;;19.43;59.00;100865.69;4995889;28;20176;-51
2023/06/15 02:15:05;;;;;;;2.70;1.60;;;;;;;19.29;59.43;100867.25;4995869;28;20034;-47
2023/06/15 02:17:38;;;;;;;5.63;2.28;;;;;;;19.22;59.12;100859.38;4995917;28;20034;-49
2023/06/15 02:20:08;;;;;;;2.10;1.90;;;;;;;19.70;58.32;100868.28;4995810;28;20109;-46
2023/06/15 02:22:35;;;;;;;2.58;1.60;;;;;;;19.85;57.47;100868.34;4995604;28;20023;-47
2023/06/15 02:25:01;;;;;;;2.58;1.92;;;;;;;19.75;57.41;100865.59;4995127;28;20093;-47
2023/06/15 02:27:47;;;;;;;2.67;1.80;;;;;;;19.42;58.97;100864.06;5013258;28;20072;-47
2023/06/15 02:30:14;;;;;;;2.83;1.60;;;;;;;19.09;59.05;100852.47;5013327;28;20033;-46
2023/06/15 02:32:42;;;;;;;5.30;1.95;;;;;;;19.48;58.92;100852.97;5012975;28;20045;-46
2023/06/15 02:35:12;;;;;;;1.80;1.58;;;;;;;19.22;59.96;100849.31;5013399;28;20037;-45
2023/06/15 02:37:39;;;;;;;1.92;1.45;;;;;;;19.22;59.73;100853.94;4980124;28;20605;-46
2023/06/15 02:40:07;;;;;;;1.80;1.38;;;;;;;18.89;61.08;100855.09;5012558;28;20049;-47
2023/06/15 02:42:33;;;;;;;1.73;1.45;;;;;;;18.65;61.66;100860.81;5012511;28;20030;-45
2023/06/15 02:45:01;;;;;;;1.45;1.20;;;;;;;18.49;60.25;100850.97;5012910;28;20529;-47
2023/06/15 02:47:27;;;;;;;2.15;1.55;;;;;;;18.31;62.66;100848.59;5012580;28;20034;-45
2023/06/15 02:49:53;;;;;;;2.38;1.73;;;;;;;17.60;65.41;100837.81;5012632;28;20471;-47
2023/06/15 02:52:20;;;;;;;4.88;1.85;;;;;;;17.47;65.94;100832.78;5012542;28;20129;-45
2023/06/15 02:54:46;;;;;;;2.42;1.85;;;;;;;17.32;66.54;100836.09;5012520;28;20480;-45
2023/06/15 02:57:12;;;;;;;3.28;2.03;;;;;;;16.71;68.40;100830.66;5012180;28;20037;-46
2023/06/15 02:59:40;;;;;;;4.43;2.42;;;;;;;16.62;68.90;100842.91;4979858;28;20037;-46
2023/06/15 03:02:07;;;;;;;5.38;2.20;;;;;;;16.39;69.66;100843.06;5012074;28;20385;-46
2023/06/15 03:04:37;;;;;;;18.77;4.28;;;;;;;16.02;71.08;100844.31;5008153;28;20046;-49
2023/06/15 03:07:03;;;;;;;10.15;3.63;;;;;;;15.58;73.08;100848.53;4994463;28;20108;-48
2023/06/15 03:09:30;;;;;;;11.30;4.30;;;;;;;15.21;74.34;100842.63;4994356;28;20383;-47
2023/06/15 03:11:57;;;;;;;9.07;3.53;;;;;;;14.86;75.22;100842.66;4994930;28;20635;-45
2023/06/15 03:14:23;;;;;;;16.33;4.50;;;;;;;14.79;75.89;100838.19;4994929;28;20027;-48
2023/06/15 03:16:51;;;;;;;18.33;5.75;;;;;;;14.72;76.39;100853.69;4994368;28;20034;-45
2023/06/15 03:19:18;;;;;;;27.52;8.02;;;;;;;14.70;77.37;100854.94;4994576;28;20076;-49
2023/06/15 03:21:47;;;;;;;22.77;7.78;;;;;;;14.59;77.65;100855.75;4994147;28;20080;-45
2023/06/15 03:24:16;;;;;;;19.42;7.30;;;;;;;14.66;77.73;100856.47;4994460;28;20080;-46
2023/06/15 03:26:43;;;;;;;28.10;8.45;;;;;;;14.52;78.43;100861.25;4994391;28;20026;-46
2023/06/15 03:29:09;;;;;;;20.92;7.45;;;;;;;14.47;77.87;100851.16;4994001;28;20084;-45
2023/06/15 03:31:40;;;;;;;25.40;7.10;;;;;;;14.23;78.76;100854.84;4994247;28;20110;-48
2023/06/15 03:34:10;;;;;;;30.35;8.45;;;;;;;14.15;79.80;100866.72;4994373;28;20022;-45
2023/06/15 03:36:37;;;;;;;26.92;8.73;;;;;;;14.17;80.41;100858.44;4993294;28;20052;-44
2023/06/15 03:39:04;;;;;;;21.75;8.00;;;;;;;14.20;80.67;100852.59;4993972;28;20022;-44
2023/06/15 03:41:34;;;;;;;32.47;9.23;;;;;;;14.22;80.30;100862.09;4994135;28;20022;-44
2023/06/15 03:44:00;;;;;;;22.75;7.78;;;;;;;14.07;80.91;100853.59;4994082;28;20057;-45
2023/06/15 03:46:27;;;;;;;22.05;7.97;;;;;;;13.87;81.71;100870.00;4994019;28;20523;-45
2023/06/15 03:48:53;;;;;;;21.88;7.72;;;;;;;13.91;81.63;100865.00;4994449;28;20073;-45
2023/06/15 03:51:19;;;;;;;22.92;8.77;;;;;;;13.89;81.71;100869.81;4993889;28;20030;-47
2023/06/15 03:53:46;;;;;;;30.00;9.60;;;;;;;13.81;82.24;100873.59;4993905;28;20387;-45
2023/06/15 03:56:13;;;;;;;23.48;9.50;;;;;;;13.87;82.18;100874.56;4993880;28;20077;-45
2023/06/15 03:58:39;;;;;;;26.00;8.10;;;;;;;13.94;81.89;100873.44;4993758;28;20106;-44
2023/06/15 04:01:06;;;;;;;30.25;9.20;;;;;;;13.95;81.72;100885.03;4993974;28;20025;-47
2023/06/15 04:03:35;;;;;;;28.02;8.63;;;;;;;13.95;80.45;100893.09;4993762;28;20022;-47
2023/06/15 04:06:05;;;;;;;28.67;9.57;;;;;;;13.80;80.26;100898.88;4993702;28;20061;-47
2023/06/15 04:08:35;;;;;;;30.35;9.50;;;;;;;13.75;80.57;100898.72;4993774;28;20026;-46
2023/06/15 04:11:02;;;;;;;29.40;9.65;;;;;;;13.77;80.88;100906.56;4993664;28;20050;-48
2023/06/15 04:13:28;;;;;;;37.88;10.98;;;;;;;13.70;81.04;100909.34;4993579;28;20399;-46
2023/06/15 04:15:54;;;;;;;42.15;10.77;;;;;;;13.77;80.75;100902.03;4994374;28;20113;-45
2023/06/15 04:18:24;;;;;;;39.08;10.57;;;;;;;13.80;80.47;100906.94;4993559;28;20053;-45
2023/06/15 04:20:51;;;;;;;36.40;11.68;;;;;;;13.73;80.90;100914.28;4993597;28;20018;-45
2023/06/15 04:23:17;;;;;;;38.25;11.45;;;;;;;13.75;81.01;100904.09;4993523;28;20030;-45
2023/06/15 04:25:45;;;;;;;39.30;12.65;;;;;;;13.60;81.74;100895.59;4993576;28;20478;-46
2023/06/15 04:28:11;;;;;;;48.95;13.60;;;;;;;13.64;81.33;100886.03;4993627;28;20031;-45
2023/06/15 04:30:45;;;;;;;46.75;12.88;;;;;;;13.65;81.36;100880.41;4993815;28;20538;-45
2023/06/15 04:33:15;;;;;;;39.60;11.98;;;;;;;13.54;82.17;100877.66;4994111;28;20186;-46
2023/06/15 04:35:45;;;;;;;42.88;12.63;;;;;;;13.60;82.01;100876.75;4993638;28;20049;-45
2023/06/15 04:38:15;;;;;;;41.85;11.77;;;;;;;13.59;81.51;100872.44;4993752;28;20471;-47
2023/06/15 04:40:42;;;;;;;41.78;11.88;;;;;;;13.53;81.18;100873.34;4993283;28;20137;-45
2023/06/15 04:43:09;;;;;;;39.58;12.48;;;;;;;13.57;80.58;100872.66;4993418;28;20110;-45
2023/06/15 04:45:36;;;;;;;40.00;13.02;;;;;;;13.55;81.08;100876.59;4993413;28;20022;-48
2023/06/15 04:48:02;;;;;;;42.97;12.45;;;;;;;13.69;80.43;100884.31;4996964;28;20035;-48
2023/06/15 04:50:30;;;;;;;42.53;11.63;;;;;;;13.64;80.44;100886.84;4997685;28;20034;-48
2023/06/15 04:52:57;;;;;;;42.17;12.88;;;;;;;13.60;80.45;100892.91;4997702;28;20058;-49
2023/06/15 04:55:23;;;;;;;50.03;13.57;;;;;;;13.57;80.73;100886.13;4997368;28;20036;-46
2023/06/15 04:57:49;;;;;;;47.10;12.43;;;;;;;13.56;80.40;100892.53;4997216;28;20072;-46
2023/06/15 05:00:16;;;;;;;40.25;12.27;;;;;;;13.57;79.99;100898.75;4997144;28;20026;-49
2023/06/15 05:02:43;;;;;;;38.78;11.40;;;;;;;13.50;79.34;100903.38;4997101;28;20083;-48
2023/06/15 05:05:11;;;;;;;41.60;12.63;;;;;;;13.41;80.04;100903.66;4997095;28;20093;-47
2023/06/15 05:07:37;;;;;;;46.97;12.30;;;;;;;13.37;79.87;100901.63;4997010;28;20038;-50
2023/06/15 05:10:04;;;;;;;42.05;11.18;;;;;;;13.40;79.58;100906.56;4997093;28;20064;-48
2023/06/15 05:12:31;;;;;;;52.72;12.75;;;;;;;13.34;80.19;100905.59;4996845;28;20026;-47
2023/06/15 05:14:58;;;;;;;42.50;11.68;;;;;;;13.35;80.25;100912.63;4996977;28;20491;-46
2023/06/15 05:17:24;;;;;;;46.15;13.20;;;;;;;13.31;80.51;100913.28;4996661;28;20041;-46
2023/06/15 05:19:50;;;;;;;47.95;13.27;;;;;;;13.33;80.96;100909.34;4997162;28;20023;-46
2023/06/15 05:22:16;;;;;;;35.65;11.77;;;;;;;13.38;80.55;100908.66;4996876;28;20049;-49
2023/06/15 05:24:43;;;;;;;45.75;12.35;;;;;;;13.31;80.53;100911.41;4997253;28;20058;-49
2023/06/15 05:27:09;;;;;;;40.92;12.05;;;;;;;13.39;80.41;100921.88;4996797;28;20034;-48
2023/06/15 05:29:36;;;;;;;46.33;12.18;;;;;;;13.32;80.83;100921.09;4996704;28;20479;-47
2023/06/15 05:32:03;;;;;;;49.60;12.50;;;;;;;13.37;80.75;100923.13;4996637;28;20026;-47
2023/06/15 05:34:29;;;;;;;46.72;12.98;;;;;;;13.41;80.69;100932.41;4996548;28;20034;-47
2023/06/15 05:36:55;;;;;;;50.70;12.30;;;;;;;13.31;80.81;100916.78;4996554;28;20038;-45
2023/06/15 05:39:21;;;;;;;43.58;12.43;;;;;;;13.32;81.00;100921.09;4996456;28;20073;-46
2023/06/15 05:41:48;;;;;;;47.25;12.07;;;;;;;13.18;80.98;100925.78;4996778;28;20069;-49
2023/06/15 05:44:14;;;;;;;44.50;11.30;;;;;;;13.23;81.22;100927.00;4996459;28;20046;-46
2023/06/15 05:46:40;;;;;;;37.00;11.38;;;;;;;13.33;80.47;100936.22;4996374;28;20053;-46
2023/06/15 05:49:07;;;;;;;45.38;11.82;;;;;;;13.27;80.30;100941.63;4996432;28;20053;-49
2023/06/15 05:51:33;;;;;;;51.38;12.75;;;;;;;13.22;80.34;100947.69;4996368;28;20030;-49
2023/06/15 05:53:59;;;;;;;40.17;11.82;;;;;;;13.14;80.59;100953.31;4996313;28;20109;-48
2023/06/15 05:56:26;;;;;;;47.22;11.68;;;;;;;13.24;80.40;100942.91;4996141;28;20041;-46
2023/06/15 05:58:52;;;;;;;44.00;11.60;;;;;;;13.30;80.29;100936.66;4995238;28;20034;-49
2023/06/15 06:01:19;;;;;;;39.88;11.80;;;;;;;13.25;80.49;100920.38;4996529;28;20050;-47
2023/06/15 06:03:45;;;;;;;48.55;13.32;;;;;;;13.21;80.37;100924.53;4996059;28;20030;-48
2023/06/15 06:06:12;;;;;;;38.90;11.70;;;;;;;13.17;80.45;100929.50;4995924;28;20030;-45
2023/06/15 06:08:39;;;;;;;50.72;13.02;;;;;;;13.23;80.36;100922.47;4995973;28;20484;-44
2023/06/15 06:11:07;;;;;;;51.50;13.00;;;;;;;13.29;80.52;100920.75;4996936;28;20041;-47
2023/06/15 06:13:34;;;;;;;45.97;13.18;;;;;;;13.04;81.28;100924.22;4995842;28;20031;-45
2023/06/15 06:16:02;;;;;;;47.88;12.95;;;;;;;13.11;81.33;100926.88;4995968;28;20026;-47
2023/06/15 06:18:29;;;;;;;51.33;13.32;;;;;;;13.15;80.96;100925.38;4995782;28;20027;-47
2023/06/15 06:20:55;;;;;;;49.38;12.45;;;;;;;13.15;80.95;100920.00;4995759;28;20027;-47
2023/06/15 06:23:21;;;;;;;44.42;11.90;;;;;;;13.07;81.60;100917.63;4995750;28;20106;-48
2023/06/15 06:25:48;;;;;;;46.88;13.07;;;;;;;13.07;81.55;100931.88;4995891;28;20491;-47
2023/06/15 06:28:14;;;;;;;46.90;12.70;;;;;;;13.04;81.41;100923.41;4995622;28;20375;-49
2023/06/15 06:30:41;;;;;;;47.65;12.68;;;;;;;12.98;81.32;100927.81;4995707;28;20027;-49
2023/06/15 06:33:07;;;;;;;40.95;12.13;;;;;;;13.06;80.95;100918.66;4995731;28;20018;-49
2023/06/15 06:35:33;;;;;;;37.03;11.70;;;;;;;13.04;81.20;100923.41;4995398;28;20022;-48
2023/06/15 06:38:00;;;;;;;55.55;13.32;;;;;;;13.01;81.53;100918.50;4995320;28;20541;-45
2023/06/15 06:40:26;;;;;;;49.13;13.07;;;;;;;13.04;81.92;100915.34;4995176;28;20108;-46
2023/06/15 06:42:52;;;;;;;43.35;12.50;;;;;;;13.06;81.83;100915.97;4995296;28;20541;-48
2023/06/15 06:45:18;;;;;;;36.22;11.45;;;;;;;13.03;81.42;100919.91;4995351;28;20109;-45
2023/06/15 06:47:45;;;;;;;55.75;12.43;;;;;;;12.92;81.57;100917.94;4995253;28;20467;-45
2023/06/15 06:50:11;;;;;;;35.85;11.55;;;;;;;12.96;81.32;100921.84;4995482;28;20033;-45
2023/06/15 06:52:37;;;;;;;37.38;12.02;;;;;;;13.03;80.88;100927.16;4995077;28;20031;-49
2023/06/15 06:55:04;;;;;;;50.50;12.88;;;;;;;12.99;81.17;100945.56;4994979;28;20027;-47
2023/06/15 06:57:30;;;;;;;52.58;13.35;;;;;;;13.01;81.12;100945.38;4995080;28;20172;-48
2023/06/15 06:59:57;;;;;;;49.20;12.82;;;;;;;13.05;81.16;100936.66;4994931;28;20173;-47
2023/06/15 07:02:23;;;;;;;44.35;12.70;;;;;;;13.05;81.62;100950.09;4995189;28;20044;-45
2023/06/15 07:04:49;;;;;;;44.92;12.82;;;;;;;13.04;81.60;100937.66;4995002;28;20109;-45
2023/06/15 07:07:16;;;;;;;45.03;12.52;;;;;;;13.13;81.62;100938.22;4995218;28;20080;-45
2023/06/15 07:09:42;;;;;;;42.75;13.40;;;;;;;13.16;81.93;100937.81;4994879;28;20121;-45
2023/06/15 07:12:09;;;;;;;37.30;11.88;;;;;;;13.12;81.85;100932.03;4994848;28;20546;-45
2023/06/15 07:14:35;;;;;;;41.80;12.13;;;;;;;13.04;81.18;100947.59;4994642;28;20061;-45
2023/06/15 07:17:01;;;;;;;41.88;12.73;;;;;;;13.09;80.79;100939.69;4994683;28;20026;-46
2023/06/15 07:19:27;;;;;;;39.38;11.25;;;;;;;13.09;81.01;100929.78;4995078;28;20502;-49
2023/06/15 07:21:54;;;;;;;36.20;11.25;;;;;;;12.98;81.60;100925.13;4994582;28;20038;-47
2023/06/15 07:24:20;;;;;;;44.13;12.80;;;;;;;13.02;81.38;100926.34;4994521;28;20026;-47
2023/06/15 07:26:46;;;;;;;51.20;12.65;;;;;;;12.88;81.92;100914.88;4994441;28;20018;-48
2023/06/15 07:29:12;;;;;;;44.53;11.95;;;;;;;12.95;81.82;100915.66;4994827;28;20027;-49
2023/06/15 07:31:39;;;;;;;46.25;12.30;;;;;;;12.91;82.43;100925.19;4994458;28;20026;-46
2023/06/15 07:34:05;;;;;;;65.28;14.13;;;;;;;12.89;82.30;100926.44;4994331;28;20068;-45
2023/06/15 07:36:32;;;;;;;55.90;13.25;;;;;;;12.93;82.29;100917.72;4994129;28;20022;-45
2023/06/15 07:38:58;;;;;;;46.97;11.43;;;;;;;12.92;82.54;100931.38;4994187;28;20368;-46
2023/06/15 07:41:24;;;;;;;50.60;12.40;;;;;;;12.89;82.46;100929.13;4994185;28;20057;-48
2023/06/15 07:43:50;;;;;;;56.38;13.50;;;;;;;12.86;82.87;100930.38;4994102;28;20172;-48
2023/06/15 07:46:17;;;;;;;40.47;12.05;;;;;;;12.91;81.94;100917.13;4995163;28;20030;-47
2023/06/15 07:48:43;;;;;;;50.67;12.88;;;;;;;12.96;81.81;100935.28;4994672;28;20108;-48
2023/06/15 07:51:09;;;;;;;33.13;11.20;;;;;;;12.97;81.86;100934.22;4993952;28;20466;-47
2023/06/15 07:53:35;;;;;;;53.13;12.80;;;;;;;12.93;82.05;100936.53;4994379;28;20030;-48
2023/06/15 07:56:02;;;;;;;42.03;11.98;;;;;;;12.99;81.92;100942.06;4993788;28;20034;-49
2023/06/15 07:58:28;;;;;;;46.80;12.30;;;;;;;13.06;81.51;100927.53;4993951;28;20089;-49
2023/06/15 08:00:54;;;;;;;35.00;10.98;;;;;;;13.07;81.32;100928.38;4994123;28;20026;-49
2023/06/15 08:03:20;;;;;;;52.42;12.70;;;;;;;13.04;81.49;100918.84;4994054;28;20030;-45
2023/06/15 08:05:46;;;;;;;40.03;11.50;;;;;;;13.06;81.48;100924.03;4993960;28;20062;-48
2023/06/15 08:08:13;;;;;;;41.47;12.07;;;;;;;13.07;81.07;100923.00;4993789;28;20072;-48
2023/06/15 08:10:39;;;;;;;40.92;11.30;;;;;;;13.16;80.47;100927.06;4994269;28;20508;-48
2023/06/15 08:13:06;;;;;;;35.03;12.50;;;;;;;13.01;81.67;100929.25;4993739;28;20027;-50
2023/06/15 08:15:33;;;;;;;57.17;12.93;;;;;;;13.06;81.98;100927.53;4993765;28;20033;-49
2023/06/15 08:18:00;;;;;;;39.28;12.52;;;;;;;13.06;81.81;100927.53;4993542;28;20030;-48
2023/06/15 08:20:26;;;;;;;40.83;13.15;;;;;;;13.05;81.91;100928.59;4993690;28;20030;-47
2023/06/15 08:22:52;;;;;;;42.60;12.73;;;;;;;13.09;81.88;100918.22;4993120;28;20467;-48
2023/06/15 08:25:18;;;;;;;47.40;12.27;;;;;;;13.01;82.27;100913.13;4993471;28;20034;-48
2023/06/15 08:27:45;;;;;;;36.92;10.95;;;;;;;13.09;81.86;100912.84;4993700;28;20026;-49
2023/06/15 08:30:12;;;;;;;39.35;12.70;;;;;;;13.08;82.10;100911.19;4993684;28;20053;-49
2023/06/15 08:32:38;;;;;;;39.88;12.65;;;;;;;13.17;81.61;100902.63;4993411;28;20026;-49
2023/06/15 08:35:05;;;;;;;43.20;11.15;;;;;;;13.04;82.13;100896.53;4993413;28;20026;-49
2023/06/15 08:37:31;;;;;;;41.78;12.80;;;;;;;13.10;82.23;100907.25;4993178;28;20506;-47
2023/06/15 08:39:58;;;;;;;50.15;12.85;;;;;;;13.08;82.50;100903.13;4993342;28;20050;-49
2023/06/15 08:42:28;;;;;;;37.97;11.90;;;;;;;13.13;81.50;100903.28;4993264;28;20446;-47
2023/06/15 08:44:55;;;;;;;41.50;11.40;;;;;;;13.27;80.69;100893.25;4993233;28;20026;-48
2023/06/15 08:47:22;;;;;;;40.67;12.07;;;;;;;13.18;80.92;100893.53;4993321;28;20038;-46
2023/06/15 08:49:48;;;;;;;38.28;11.02;;;;;;;13.26;81.03;100895.13;4993402;28;20030;-48
2023/06/15 08:52:17;;;;;;;40.05;11.27;;;;;;;13.24;81.23;100889.16;4993199;28;20054;-48
2023/06/15 08:54:43;;;;;;;44.15;10.90;;;;;;;13.19;80.85;100884.41;4993508;28;20033;-49
2023/06/15 08:57:10;;;;;;;37.95;11.73;;;;;;;13.17;80.91;100874.94;4992990;28;20034;-45
2023/06/15 08:59:37;;;;;;;35.70;11.10;;;;;;;13.18;80.45;100873.88;4992892;28;20033;-48
2023/06/15 09:02:05;;;;;;;43.80;11.73;;;;;;;13.24;80.39;100872.22;4993081;28;20019;-49
2023/06/15 09:04:32;;;;;;;34.78;10.60;;;;;;;13.16;80.70;100873.31;4993096;28;20030;-49
2023/06/15 09:07:00;;;;;;;46.85;11.68;;;;;;;13.13;80.37;100873.72;4993007;28;20022;-47
2023/06/15 09:09:26;;;;;;;42.33;11.73;;;;;;;13.11;80.44;100873.97;4993062;28;20031;-48
2023/06/15 09:11:52;;;;;;;41.13;10.73;;;;;;;13.11;81.18;100883.88;4993113;28;20034;-49
2023/06/15 09:14:19;;;;;;;30.75;10.68;;;;;;;13.13;81.33;100887.16;4992943;28;20578;-46
2023/06/15 09:16:46;;;;;;;45.58;11.23;;;;;;;13.09;81.75;100876.03;4992905;28;20044;-49
2023/06/15 09:19:13;;;;;;;35.97;11.85;;;;;;;13.17;81.55;100880.31;4992999;28;20113;-49
2023/06/15 09:21:49;;;;;;;35.88;10.70;;;;;;;13.13;81.31;100885.31;4992983;28;20042;-45
2023/06/15 09:24:17;;;;;;;32.00;9.43;;;;;;;13.17;80.96;100885.69;4993232;28;20536;-47
2023/06/15 09:26:45;;;;;;;36.20;9.57;;;;;;;13.20;80.58;100882.53;4992868;28;20426;-48
2023/06/15 09:29:12;;;;;;;37.83;9.32;;;;;;;13.18;81.01;100884.63;4992858;28;20053;-46
2023/06/15 09:31:40;;;;;;;38.28;9.90;;;;;;;13.31;80.55;100884.53;4993135;28;20046;-48
2023/06/15 09:34:11;;;;;;;36.33;9.57;;;;;;;13.17;81.21;100877.63;4994552;28;20092;-48
2023/06/15 09:36:49;;;;;;;25.85;8.18;;;;;;;13.29;80.59;100870.50;4996412;28;20026;-45
2023/06/15 09:39:22;;;;;;;20.33;7.20;;;;;;;13.30;80.35;100882.88;4996355;28;20053;-46
2023/06/15 09:41:53;;;;;;;26.42;8.73;;;;;;;13.28;81.12;100893.06;4996503;28;20483;-45
2023/06/15 09:44:25;;;;;;;27.92;8.88;;;;;;;13.27;80.81;100886.03;4996526;28;20471;-45
2023/06/15 09:46:52;;;;;;;27.67;8.88;;;;;;;13.40;80.02;100885.88;4996886;28;20023;-45
2023/06/15 09:49:25;;;;;;;31.45;9.05;;;;;;;13.31;80.75;100887.22;4996726;28;20077;-45
2023/06/15 09:51:52;;;;;;;33.03;9.13;;;;;;;13.37;80.62;100886.31;4996274;28;20105;-46
2023/06/15 09:54:21;;;;;;;24.52;8.05;;;;;;;13.48;80.42;100887.44;4996160;28;20196;-45
2023/06/15 09:56:52;;;;;;;36.08;8.65;;;;;;;13.52;80.14;100885.13;4995898;28;20056;-45
2023/06/15 09:59:20;;;;;;;16.92;6.78;;;;;;;13.60;79.51;100888.38;4996142;28;20065;-45
2023/06/15 10:01:48;;;;;;;27.20;7.47;;;;;;;13.63;79.67;100895.16;4995989;28;20189;-45
2023/06/15 10:04:17;;;;;;;19.98;7.97;;;;;;;13.69;79.33;100884.31;4995939;28;20055;-45
2023/06/15 10:06:48;;;;;;;19.95;7.55;;;;;;;13.66;79.38;100878.56;4995856;28;20019;-44
2023/06/15 10:09:21;;;;;;;22.48;7.13;;;;;;;13.69;79.32;100880.78;4995858;28;20078;-44
2023/06/15 10:11:50;;;;;;;18.45;6.43;;;;;;;13.74;79.17;100871.00;4995946;28;20023;-44
2023/06/15 10:14:29;;;;;;;17.45;6.35;;;;;;;13.77;78.59;100872.44;4995650;28;20033;-45
2023/06/15 10:17:03;;;;;;;20.58;5.88;;;;;;;13.81;78.50;100872.78;4995755;28;20034;-46
2023/06/15 10:19:32;;;;;;;16.98;6.80;;;;;;;13.76;79.00;100873.47;4996102;28;20113;-45
2023/06/15 10:22:00;;;;;;;17.70;6.72;;;;;;;13.78;78.84;100868.69;4995875;28;20109;-45
2023/06/15 10:24:27;;;;;;;28.38;7.90;;;;;;;13.83;78.46;100858.06;4996182;28;20399;-45
2023/06/15 10:26:54;;;;;;;27.83;8.40;;;;;;;13.76;79.10;100849.25;4995669;28;20030;-45
2023/06/15 10:30:02;;;;;;;27.27;8.32;;;;;;;13.67;79.60;100854.13;4995624;28;20076;-45
2023/06/15 10:32:41;;;;;;;19.88;6.78;;;;;;;13.78;78.68;100860.63;4985516;28;20042;-46
2023/06/15 10:35:19;;;;;;;24.33;6.90;;;;;;;13.84;78.39;100861.59;4995564;28;20569;-45
2023/06/15 10:38:10;;;;;;;20.25;6.90;;;;;;;13.83;79.10;100858.06;4995715;28;20097;-44
2023/06/15 10:40:48;;;;;;;21.95;6.65;;;;;;;13.78;79.75;100852.56;4995352;28;20042;-45
2023/06/15 10:43:21;;;;;;;21.75;7.05;;;;;;;13.84;79.35;100856.22;4995696;28;20031;-45
2023/06/15 10:45:48;;;;;;;22.75;6.13;;;;;;;13.83;79.29;100844.63;4994920;28;20023;-47
2023/06/15 10:48:26;;;;;;;18.05;5.70;;;;;;;13.85;78.84;100847.91;4995269;28;20375;-47
2023/06/15 10:51:03;;;;;;;23.88;6.38;;;;;;;13.83;79.24;100843.81;4995242;28;20471;-45
2023/06/15 10:53:34;;;;;;;21.77;6.35;;;;;;;13.84;79.10;100843.56;4995190;28;20034;-47
2023/06/15 10:56:00;;;;;;;26.30;7.28;;;;;;;13.84;78.83;100843.56;4995048;28;20041;-49
2023/06/15 10:58:29;;;;;;;19.33;6.05;;;;;;;13.89;78.78;100853.66;4995299;28;20493;-47
2023/06/15 11:01:13;;;;;;;14.52;5.72;;;;;;;13.80;79.26;100855.81;4995031;28;20037;-46
2023/06/15 11:03:43;;;;;;;18.42;6.03;;;;;;;13.76;79.84;100859.19;4994937;28;20026;-46
2023/06/15 11:06:18;;;;;;;12.85;5.50;;;;;;;13.88;79.39;100852.84;4995141;28;20057;-47
2023/06/15 11:08:52;;;;;;;17.92;6.25;;;;;;;13.90;79.23;100844.53;4994862;28;20026;-46
2023/06/15 11:11:40;;;;;;;23.25;6.45;;;;;;;13.92;78.79;100840.53;4994937;28;20485;-46
2023/06/15 11:14:23;;;;;;;18.70;6.18;;;;;;;13.86;79.40;100836.09;4994808;28;20022;-47
2023/06/15 11:17:06;;;;;;;22.85;6.55;;;;;;;13.83;79.79;100841.94;4995542;28;20030;-49
2023/06/15 11:19:40;;;;;;;15.40;5.97;;;;;;;13.86;79.65;100843.34;4994613;28;20026;-46